createdAt,value
2022-10-11T00:00:09.090Z,88.75
2022-10-11T00:02:35.826Z,96.03
2022-10-11T00:05:02.856Z,102.13
2022-10-11T00:07:29.818Z,81.45
2022-10-11T00:09:56.613Z,91.32
2022-10-11T00:12:23.529Z,140.07
2022-10-11T00:14:50.230Z,105.45
2022-10-11T00:17:16.972Z,85.88
2022-10-11T00:19:43.838Z,80.65
2022-10-11T00:22:10.650Z,94.28
2022-10-11T00:24:37.364Z,219.00
2022-10-11T00:27:04.200Z,135.15
2022-10-11T00:29:30.905Z,194.77
2022-10-11T00:31:57.677Z,183.48
2022-10-11T00:34:24.565Z,194.90
2022-10-11T00:36:51.263Z,217.18
2022-10-11T00:39:20.724Z,159.40
2022-10-11T00:41:49.424Z,119.43
2022-10-11T00:44:17.683Z,199.07
2022-10-11T00:47:12.584Z,243.27
2022-10-11T00:49:44.217Z,110.30
2022-10-11T00:52:34.201Z,219.88
2022-10-11T00:57:44.207Z,189.65
2022-10-11T01:00:13.962Z,128.43
2022-10-11T01:02:41.941Z,145.13
2022-10-11T01:05:28.553Z,237.07
2022-10-11T01:07:56.289Z,201.18
2022-10-11T01:10:24.879Z,119.13
2022-10-11T01:13:22.378Z,189.07
2022-10-11T01:16:04.746Z,185.20
2022-10-11T01:18:47.987Z,130.60
2022-10-11T01:21:34.185Z,274.25
2022-10-11T01:24:08.711Z,209.45
2022-10-11T01:27:00.597Z,107.75
2022-10-11T01:29:30.387Z,143.45
2022-10-11T01:32:19.395Z,69.45
2022-10-11T01:35:00.020Z,106.93
2022-10-11T01:37:35.591Z,85.78
2022-10-11T01:40:12.346Z,120.30
2022-10-11T01:42:41.462Z,103.72
2022-10-11T01:45:10.912Z,164.45
2022-10-11T01:47:39.191Z,201.25
2022-10-11T01:50:08.274Z,194.95
2022-10-11T01:52:42.025Z,165.93
2022-10-11T01:55:23.776Z,165.80
2022-10-11T01:58:09.968Z,107.50
2022-10-11T02:00:51.979Z,102.47
2022-10-11T02:04:08.055Z,69.70
2022-10-11T02:06:56.619Z,60.58
2022-10-11T02:09:26.733Z,56.03
2022-10-11T02:12:02.531Z,50.15
2022-10-11T02:14:34.332Z,60.03
2022-10-11T02:17:07.871Z,120.63
2022-10-11T02:19:45.712Z,163.35
2022-10-11T02:22:21.754Z,125.93
2022-10-11T02:24:52.028Z,135.75
2022-10-11T02:27:24.657Z,119.22
2022-10-11T02:29:54.048Z,83.95
2022-10-11T02:32:22.076Z,137.73
2022-10-11T02:34:55.060Z,210.40
2022-10-11T02:37:27.377Z,168.48
2022-10-11T02:40:18.013Z,255.57
2022-10-11T02:42:50.055Z,180.50
2022-10-11T02:45:21.519Z,242.63
2022-10-11T02:47:48.712Z,195.55
2022-10-11T02:50:16.270Z,221.73
2022-10-11T02:52:43.136Z,178.02
2022-10-11T02:55:11.206Z,275.33
2022-10-11T02:57:37.966Z,151.07
2022-10-11T03:00:05.815Z,84.88
2022-10-11T03:02:32.582Z,78.10
2022-10-11T03:04:59.296Z,129.60
2022-10-11T03:07:26.169Z,152.88
2022-10-11T03:09:52.851Z,97.70
2022-10-11T03:12:19.575Z,101.07
2022-10-11T03:14:46.439Z,78.43
2022-10-11T03:17:35.149Z,66.85
2022-10-11T03:20:00.092Z,89.25
2022-10-11T03:22:26.852Z,80.80
2022-10-11T03:24:53.557Z,82.65
2022-10-11T03:27:20.359Z,139.05
2022-10-11T03:29:47.053Z,107.93
2022-10-11T03:32:13.763Z,147.65
2022-10-11T03:34:40.516Z,155.38
2022-10-11T03:37:07.340Z,102.97
2022-10-11T03:39:34.174Z,134.68
2022-10-11T03:42:07.331Z,222.10
2022-10-11T03:44:40.106Z,228.57
2022-10-11T03:47:12.977Z,182.23
2022-10-11T03:49:43.422Z,171.07
2022-10-11T03:52:11.337Z,177.02
2022-10-11T03:54:38.141Z,142.35
2022-10-11T03:57:04.963Z,168.52
2022-10-11T03:59:33.678Z,122.68
2022-10-11T04:02:00.508Z,145.20
2022-10-11T04:04:27.250Z,146.43
2022-10-11T04:06:54.342Z,101.95
2022-10-11T04:09:21.039Z,70.80
2022-10-11T04:11:47.757Z,60.92
2022-10-11T04:14:14.973Z,77.13
2022-10-11T04:16:42.073Z,109.38
2022-10-11T04:19:08.977Z,119.90
2022-10-11T04:21:35.837Z,92.68
2022-10-11T04:24:02.621Z,146.40
2022-10-11T04:26:29.336Z,150.50
2022-10-11T04:28:56.219Z,139.57
2022-10-11T04:31:23.680Z,166.38
2022-10-11T04:33:50.434Z,231.70
2022-10-11T04:36:17.203Z,147.90
2022-10-11T04:38:43.908Z,187.98
2022-10-11T04:41:13.414Z,125.07
2022-10-11T04:43:40.695Z,91.47
2022-10-11T04:46:08.408Z,155.77
2022-10-11T04:48:35.599Z,160.85
2022-10-11T04:51:02.534Z,122.88
2022-10-11T04:53:29.269Z,136.10
2022-10-11T04:55:58.967Z,62.50
2022-10-11T04:58:25.815Z,86.18
2022-10-11T05:00:52.510Z,51.75
2022-10-11T05:03:19.260Z,49.55
2022-10-11T05:05:46.125Z,37.03
2022-10-11T05:08:13.099Z,42.65
2022-10-11T05:10:39.779Z,52.17
2022-10-11T05:13:07.033Z,37.47
2022-10-11T05:15:33.997Z,34.70
2022-10-11T05:18:00.833Z,35.10
2022-10-11T05:20:28.120Z,30.48
2022-10-11T05:22:54.868Z,21.83
2022-10-11T05:25:21.603Z,25.52
2022-10-11T05:27:48.926Z,21.30
2022-10-11T05:30:15.692Z,22.50
2022-10-11T05:32:42.371Z,27.08
2022-10-11T05:35:09.584Z,26.08
2022-10-11T05:37:36.372Z,22.17
2022-10-11T05:40:04.149Z,73.38
2022-10-11T05:42:30.924Z,108.13
2022-10-11T05:44:57.599Z,121.95
2022-10-11T05:47:24.444Z,114.10
2022-10-11T05:49:51.231Z,112.03
2022-10-11T05:52:21.607Z,165.07
2022-10-11T05:54:48.929Z,183.20
2022-10-11T05:57:16.654Z,236.75
2022-10-11T05:59:43.432Z,259.77
2022-10-11T06:02:13.826Z,255.65
2022-10-11T06:04:40.753Z,293.13
2022-10-11T06:07:09.021Z,251.73
2022-10-11T06:09:35.816Z,298.83
2022-10-11T06:12:03.041Z,237.80
2022-10-11T06:14:29.863Z,213.88
2022-10-11T06:16:56.553Z,195.27
2022-10-11T06:19:23.746Z,219.38
2022-10-11T06:21:50.507Z,242.65
2022-10-11T06:24:17.601Z,239.65
2022-10-11T06:26:44.359Z,22.70
2022-10-11T06:29:11.118Z,27.15
2022-10-11T06:31:37.986Z,26.75
2022-10-11T06:34:04.845Z,23.73
2022-10-11T06:36:31.548Z,26.02
2022-10-11T06:39:01.164Z,26.80
2022-10-11T06:41:30.500Z,22.13
2022-10-11T06:43:57.443Z,22.33
2022-10-11T06:46:26.307Z,24.13
2022-10-11T06:48:54.275Z,23.52
2022-10-11T06:51:22.521Z,24.00
2022-10-11T06:53:51.142Z,20.63
2022-10-11T06:56:19.337Z,19.98
2022-10-11T06:58:46.383Z,24.02
2022-10-11T07:01:18.856Z,23.15
2022-10-11T07:03:46.146Z,24.50
2022-10-11T07:06:15.424Z,21.75
2022-10-11T07:08:43.172Z,20.20
2022-10-11T07:11:11.098Z,17.67
2022-10-11T07:13:38.819Z,21.52
2022-10-11T07:16:08.139Z,20.23
2022-10-11T07:18:35.341Z,20.77
2022-10-11T07:21:11.913Z,26.38
2022-10-11T07:23:38.870Z,21.83
2022-10-11T07:26:07.555Z,25.83
2022-10-11T07:28:36.024Z,23.50
2022-10-11T07:31:10.432Z,26.73
2022-10-11T07:33:37.173Z,24.85
2022-10-11T07:36:05.217Z,19.50
2022-10-11T07:38:33.001Z,37.05
2022-10-11T07:41:00.137Z,25.48
2022-10-11T07:43:26.839Z,25.02
2022-10-11T07:45:55.832Z,21.33
2022-10-11T07:48:22.997Z,23.47
2022-10-11T07:50:49.695Z,23.45
2022-10-11T07:53:16.740Z,23.15
2022-10-11T07:55:43.491Z,29.75
2022-10-11T07:58:11.857Z,21.02
2022-10-11T08:00:42.390Z,24.40
2022-10-11T08:03:10.559Z,22.40
2022-10-11T08:05:39.189Z,22.50
2022-10-11T08:08:05.990Z,20.38
2022-10-11T08:10:38.427Z,17.50
2022-10-11T08:13:05.570Z,16.95
2022-10-11T08:15:32.554Z,16.02
2022-10-11T08:17:59.413Z,15.27
2022-10-11T08:20:27.649Z,13.93
2022-10-11T08:22:55.359Z,17.15
2022-10-11T08:25:22.076Z,23.15
2022-10-11T08:27:48.938Z,22.33
2022-10-11T08:30:15.960Z,19.02
2022-10-11T08:32:42.751Z,20.30
2022-10-11T08:35:09.490Z,19.33
2022-10-11T08:37:36.274Z,16.13
2022-10-11T08:40:03.622Z,17.45
2022-10-11T08:42:48.652Z,83.63
2022-10-11T08:45:32.117Z,99.82
2022-10-11T08:48:16.009Z,87.40
2022-10-11T08:50:46.617Z,97.15
2022-10-11T08:53:54.029Z,124.40
2022-10-11T08:56:22.843Z,32.78
2022-10-11T08:59:02.202Z,71.72
2022-10-11T09:01:31.255Z,126.07
2022-10-11T09:04:00.361Z,57.50
2022-10-11T09:06:30.528Z,31.95
2022-10-11T09:08:59.828Z,22.08
2022-10-11T09:11:46.940Z,18.05
2022-10-11T09:14:19.465Z,26.95
2022-10-11T09:17:22.015Z,28.45
2022-10-11T09:20:13.481Z,23.98
2022-10-11T09:23:19.380Z,14.15
2022-10-11T09:25:58.276Z,9.55
2022-10-11T09:28:46.342Z,8.70
2022-10-11T09:31:13.209Z,9.43
2022-10-11T09:33:51.572Z,9.70
2022-10-11T09:36:27.325Z,6.97
2022-10-11T09:39:06.895Z,6.50
2022-10-11T09:41:38.637Z,5.10
2022-10-11T09:44:07.759Z,8.55
2022-10-11T09:49:08.071Z,4.20
2022-10-11T09:51:35.083Z,5.25
2022-10-11T09:54:05.198Z,12.82
2022-10-11T09:56:35.276Z,9.60
2022-10-11T09:59:21.205Z,4.53
2022-10-11T10:01:48.548Z,9.00
2022-10-11T10:04:17.320Z,7.10
2022-10-11T10:06:44.233Z,7.53
2022-10-11T10:09:31.177Z,6.38
2022-10-11T10:11:58.336Z,8.07
2022-10-11T10:14:29.136Z,3.88
2022-10-11T10:17:03.027Z,7.78
2022-10-11T10:19:47.600Z,5.78
2022-10-11T10:22:28.567Z,4.35
2022-10-11T10:24:57.131Z,5.93
2022-10-11T10:27:25.314Z,2.88
2022-10-11T10:30:08.486Z,2.63
2022-10-11T10:32:57.102Z,10.55
2022-10-11T10:35:44.869Z,2.13
2022-10-11T10:38:14.365Z,2.30
2022-10-11T10:40:59.159Z,3.75
2022-10-11T10:43:30.278Z,4.20
2022-10-11T10:46:24.926Z,3.63
2022-10-11T10:52:42.057Z,6.20
2022-10-11T10:55:33.736Z,3.75
2022-10-11T10:58:22.413Z,7.13
2022-10-11T11:00:52.035Z,6.53
2022-10-11T11:03:46.228Z,6.70
2022-10-11T11:06:35.691Z,7.88
2022-10-11T11:09:07.231Z,7.15
2022-10-11T11:11:36.893Z,10.60
2022-10-11T11:14:08.627Z,9.23
2022-10-11T11:17:00.504Z,5.95
2022-10-11T11:19:38.166Z,5.50
2022-10-11T11:22:04.896Z,5.40
2022-10-11T11:24:40.669Z,5.32
2022-10-11T11:27:10.496Z,7.88
2022-10-11T11:30:01.906Z,12.15
2022-10-11T11:32:49.419Z,7.38
2022-10-11T11:35:28.311Z,5.80
2022-10-11T11:38:06.385Z,4.95
2022-10-11T11:43:19.201Z,3.53
2022-10-11T11:45:52.074Z,4.82
2022-10-11T11:48:24.663Z,4.75
2022-10-11T11:50:59.241Z,5.07
2022-10-11T11:53:43.631Z,5.35
2022-10-11T11:56:25.938Z,4.50
2022-10-11T11:59:19.769Z,5.35
2022-10-11T12:01:56.037Z,5.78
2022-10-11T12:04:28.632Z,7.82
2022-10-11T12:07:16.212Z,5.82
2022-10-11T12:09:47.013Z,5.25
2022-10-11T12:12:36.425Z,4.20
2022-10-11T12:15:09.164Z,4.43
2022-10-11T12:17:58.012Z,5.05
2022-10-11T12:20:30.945Z,4.85
2022-10-11T12:23:00.938Z,6.28
2022-10-11T12:25:28.593Z,5.07
2022-10-11T12:27:57.183Z,5.55
2022-10-11T12:30:48.552Z,6.57
2022-10-11T12:33:18.287Z,4.22
2022-10-11T12:35:54.479Z,5.70
2022-10-11T12:38:37.369Z,6.30
2022-10-11T12:41:10.434Z,6.22
2022-10-11T12:44:06.173Z,4.90
2022-10-11T12:46:40.569Z,4.55
2022-10-11T12:49:22.888Z,3.70
2022-10-11T12:52:20.398Z,3.85
2022-10-11T12:55:26.729Z,5.50
2022-10-11T12:57:56.798Z,4.70
2022-10-11T13:00:40.513Z,8.20
2022-10-11T13:03:32.557Z,4.15
2022-10-11T13:06:09.574Z,5.05
2022-10-11T13:08:40.426Z,9.67
2022-10-11T13:11:11.022Z,6.57
2022-10-11T13:13:42.646Z,8.65
2022-10-11T13:16:14.354Z,8.48
2022-10-11T13:18:48.217Z,11.50
2022-10-11T13:21:27.152Z,11.88
2022-10-11T13:24:16.189Z,9.70
2022-10-11T13:26:50.487Z,11.95
2022-10-11T13:29:26.375Z,12.90
2022-10-11T13:31:53.172Z,10.25
2022-10-11T13:34:23.386Z,9.57
2022-10-11T13:36:56.074Z,10.93
2022-10-11T13:39:31.257Z,9.57
2022-10-11T13:41:59.938Z,9.43
2022-10-11T13:44:27.352Z,9.13
2022-10-11T13:46:54.665Z,10.60
2022-10-11T13:49:31.717Z,14.80
2022-10-11T13:52:01.186Z,10.35
2022-10-11T13:55:05.318Z,12.20
2022-10-11T13:57:52.632Z,11.15
2022-10-11T14:00:32.632Z,9.43
2022-10-11T14:03:17.781Z,13.90
2022-10-11T14:05:54.561Z,10.40
2022-10-11T14:08:42.095Z,11.50
2022-10-11T14:11:11.596Z,13.35
2022-10-11T14:13:56.577Z,10.40
2022-10-11T14:16:23.330Z,11.50
2022-10-11T14:18:58.965Z,11.35
2022-10-11T14:21:46.740Z,11.18
2022-10-11T14:24:15.117Z,12.30
2022-10-11T14:26:48.507Z,13.90
2022-10-11T14:29:23.748Z,7.68
2022-10-11T14:31:51.208Z,12.90
2022-10-11T14:34:20.923Z,7.63
2022-10-11T14:36:48.393Z,8.98
2022-10-11T14:39:18.325Z,9.45
2022-10-11T14:41:45.581Z,8.43
2022-10-11T14:44:12.517Z,10.88
2022-10-11T14:46:41.188Z,10.65
2022-10-11T14:49:17.023Z,9.52
2022-10-11T14:51:47.551Z,9.20
2022-10-11T14:54:15.328Z,6.85
2022-10-11T14:56:42.270Z,9.05
2022-10-11T14:59:15.015Z,8.60
2022-10-11T15:01:42.088Z,11.45
2022-10-11T15:04:09.231Z,10.88
2022-10-11T15:06:38.999Z,9.80
2022-10-11T15:09:06.583Z,9.73
2022-10-11T15:11:33.765Z,20.70
2022-10-11T15:14:00.735Z,11.63
2022-10-11T15:16:27.465Z,9.55
2022-10-11T15:18:54.336Z,10.68
2022-10-11T15:21:24.026Z,11.63
2022-10-11T15:23:52.132Z,10.27
2022-10-11T15:26:29.603Z,6.50
2022-10-11T15:28:57.535Z,7.47
2022-10-11T15:31:24.516Z,8.43
2022-10-11T15:33:51.792Z,8.32
2022-10-11T15:36:21.531Z,6.93
2022-10-11T15:38:49.436Z,7.22
2022-10-11T15:41:18.965Z,11.57
2022-10-11T15:43:47.156Z,6.70
2022-10-11T15:46:17.639Z,6.15
2022-10-11T15:48:44.878Z,7.15
2022-10-11T15:51:11.761Z,7.75
2022-10-11T15:53:38.562Z,9.68
2022-10-11T15:56:08.406Z,7.85
2022-10-11T15:58:40.900Z,6.25
2022-10-11T16:01:11.892Z,7.07
2022-10-11T16:03:38.696Z,10.50
2022-10-11T16:06:06.088Z,9.68
2022-10-11T16:08:34.346Z,4.57
2022-10-11T16:11:01.675Z,7.60
2022-10-11T16:13:28.467Z,6.63
2022-10-11T16:15:55.400Z,5.80
2022-10-11T16:18:22.407Z,7.28
2022-10-11T16:20:52.080Z,9.95
2022-10-11T16:23:21.073Z,5.22
2022-10-11T16:26:03.758Z,6.18
2022-10-11T16:28:32.053Z,9.05
2022-10-11T16:30:59.168Z,8.30
2022-10-11T16:33:27.018Z,10.27
2022-10-11T16:35:54.006Z,10.23
2022-10-11T16:38:20.725Z,12.57
2022-10-11T16:40:47.470Z,9.48
2022-10-11T16:43:14.410Z,14.02
2022-10-11T16:45:41.132Z,15.40
2022-10-11T16:48:07.893Z,11.13
2022-10-11T16:50:39.329Z,12.40
2022-10-11T16:53:06.601Z,9.90
2022-10-11T16:55:33.335Z,10.57
2022-10-11T16:58:00.184Z,10.48
2022-10-11T17:00:26.903Z,8.77
2022-10-11T17:02:53.583Z,11.20
2022-10-11T17:05:20.495Z,9.95
2022-10-11T17:07:47.196Z,7.93
2022-10-11T17:10:13.973Z,9.32
2022-10-11T17:12:40.820Z,8.20
2022-10-11T17:15:10.781Z,6.40
2022-10-11T17:17:37.877Z,8.77
2022-10-11T17:20:05.187Z,5.43
2022-10-11T17:22:31.884Z,8.02
2022-10-11T17:25:01.516Z,6.82
2022-10-11T17:27:28.793Z,8.52
2022-10-11T17:29:55.530Z,9.85
2022-10-11T17:32:22.228Z,12.75
2022-10-11T17:34:49.039Z,9.38
2022-10-11T17:37:15.788Z,6.82
2022-10-11T17:39:43.011Z,7.13
2022-10-11T17:42:09.838Z,12.57
2022-10-11T17:44:36.639Z,7.75
2022-10-11T17:47:04.906Z,6.53
2022-10-11T17:49:31.910Z,5.65
2022-10-11T17:51:58.692Z,9.40
2022-10-11T17:54:26.123Z,13.32
2022-10-11T17:56:54.767Z,9.63
2022-10-11T17:59:21.944Z,6.45
2022-10-11T18:01:51.830Z,8.85
2022-10-11T18:04:21.585Z,8.60
2022-10-11T18:09:17.571Z,9.20
2022-10-11T18:11:44.667Z,11.95
2022-10-11T18:14:11.427Z,7.00
2022-10-11T18:16:39.165Z,9.88
2022-10-11T18:19:11.297Z,8.88
2022-10-11T18:21:38.981Z,7.53
2022-10-11T18:24:13.053Z,7.72
2022-10-11T18:26:40.047Z,8.70
2022-10-11T18:29:07.125Z,9.38
2022-10-11T18:31:35.371Z,10.23
2022-10-11T18:34:03.296Z,6.38
2022-10-11T18:36:31.363Z,8.77
2022-10-11T18:39:00.879Z,12.20
2022-10-11T18:41:30.820Z,9.18
2022-10-11T18:44:04.518Z,15.30
2022-10-11T18:46:32.369Z,14.30
2022-10-11T18:49:02.177Z,11.63
2022-10-11T18:53:58.502Z,11.15
2022-10-11T18:56:27.120Z,12.32
2022-10-11T18:58:55.727Z,11.18
2022-10-11T19:01:26.720Z,11.93
2022-10-11T19:03:56.837Z,14.90
2022-10-11T19:06:26.995Z,10.32
2022-10-11T19:09:01.966Z,12.73
2022-10-11T19:11:29.117Z,11.45
2022-10-11T19:14:00.029Z,16.38
2022-10-11T19:16:29.979Z,13.20
2022-10-11T19:18:57.324Z,16.27
2022-10-11T19:21:24.916Z,15.65
2022-10-11T19:23:52.535Z,25.02
2022-10-11T19:26:22.534Z,19.10
2022-10-11T19:28:55.433Z,14.32
2022-10-11T19:31:22.199Z,15.30
2022-10-11T19:33:49.717Z,11.48
2022-10-11T19:36:17.503Z,15.27
2022-10-11T19:38:46.622Z,12.82
2022-10-11T19:41:15.260Z,14.27
2022-10-11T19:43:42.862Z,16.45
2022-10-11T19:46:20.221Z,13.18
2022-10-11T19:48:54.544Z,11.20
2022-10-11T19:51:26.628Z,19.70
2022-10-11T19:53:56.999Z,11.60
2022-10-11T19:56:27.863Z,17.77
2022-10-11T19:58:55.166Z,13.85
2022-10-11T20:01:24.235Z,17.42
2022-10-11T20:03:54.018Z,15.77
2022-10-11T20:06:23.082Z,11.05
2022-10-11T20:09:10.327Z,18.05
2022-10-11T20:11:37.506Z,15.80
2022-10-11T20:14:04.621Z,19.55
2022-10-11T20:16:31.324Z,19.60
2022-10-11T20:18:59.377Z,18.83
2022-10-11T20:21:28.714Z,14.80
2022-10-11T20:24:01.353Z,13.40
2022-10-11T20:26:29.894Z,15.48
2022-10-11T20:28:57.342Z,13.80
2022-10-11T20:31:29.836Z,16.50
2022-10-11T20:33:58.575Z,16.95
2022-10-11T20:36:28.053Z,22.85
2022-10-11T20:38:54.956Z,16.00
2022-10-11T20:41:27.651Z,13.82
2022-10-11T20:43:56.852Z,17.05
2022-10-11T20:46:28.138Z,16.13
2022-10-11T20:49:01.547Z,13.85
2022-10-11T20:51:30.296Z,19.55
2022-10-11T20:53:57.460Z,16.75
2022-10-11T20:56:24.888Z,13.55
2022-10-11T20:58:53.780Z,18.08
2022-10-11T21:01:23.519Z,23.33
2022-10-11T21:03:50.568Z,18.13
2022-10-11T21:06:17.318Z,15.80
2022-10-11T21:08:44.901Z,17.25
2022-10-11T21:11:11.706Z,13.93
2022-10-11T21:13:38.615Z,11.00
2022-10-11T21:16:05.435Z,15.70
2022-10-11T21:18:32.349Z,14.77
2022-10-11T21:21:06.431Z,20.23
2022-10-11T21:23:33.624Z,12.55
2022-10-11T21:26:06.236Z,14.90
2022-10-11T21:28:34.070Z,19.95
2022-10-11T21:31:08.756Z,19.65
2022-10-11T21:33:36.184Z,14.85
2022-10-11T21:36:20.126Z,15.45
2022-10-11T21:38:46.957Z,15.55
2022-10-11T21:41:18.284Z,20.42
2022-10-11T21:43:45.859Z,12.82
2022-10-11T21:46:16.372Z,13.02
2022-10-11T21:48:43.358Z,12.10
2022-10-11T21:51:17.726Z,23.88
2022-10-11T21:53:44.416Z,14.15
2022-10-11T21:56:11.160Z,13.68
2022-10-11T21:58:37.980Z,17.02
2022-10-11T22:01:04.814Z,14.07
2022-10-11T22:03:31.633Z,19.35
2022-10-11T22:06:01.387Z,19.00
2022-10-11T22:08:28.089Z,18.75
2022-10-11T22:10:58.056Z,16.55
2022-10-11T22:15:53.719Z,16.75
2022-10-11T22:18:20.800Z,26.75
2022-10-11T22:20:47.597Z,20.05
2022-10-11T22:23:14.357Z,18.05
2022-10-11T22:25:41.499Z,21.70
2022-10-11T22:28:08.857Z,21.40
2022-10-11T22:30:35.637Z,21.25
2022-10-11T22:33:02.391Z,21.90
2022-10-11T22:35:31.388Z,17.25
2022-10-11T22:38:00.333Z,15.82
2022-10-11T22:40:27.102Z,16.20
2022-10-11T22:42:53.923Z,16.80
2022-10-11T22:45:20.606Z,19.65
2022-10-11T22:47:47.291Z,17.95
2022-10-11T22:50:14.135Z,17.27
2022-10-11T22:52:40.887Z,19.20
2022-10-11T22:55:08.016Z,22.08
2022-10-11T22:57:35.146Z,20.20
2022-10-11T23:00:02.049Z,15.60
2022-10-11T23:02:28.845Z,23.13
2022-10-11T23:04:55.676Z,23.85
2022-10-11T23:07:22.424Z,15.90
2022-10-11T23:09:49.134Z,17.67
2022-10-11T23:12:16.006Z,19.27
2022-10-11T23:14:42.854Z,21.85
2022-10-11T23:17:09.561Z,18.88
2022-10-11T23:19:37.308Z,16.92
2022-10-11T23:22:04.095Z,17.40
2022-10-11T23:24:30.955Z,19.65
2022-10-11T23:26:57.765Z,13.98
2022-10-11T23:29:24.509Z,13.00
2022-10-11T23:31:51.634Z,14.57
2022-10-11T23:34:18.585Z,14.70
2022-10-11T23:36:45.343Z,13.15
2022-10-11T23:39:13.064Z,13.25
2022-10-11T23:41:39.885Z,14.70
2022-10-11T23:44:06.665Z,21.17
2022-10-11T23:46:33.493Z,19.55
2022-10-11T23:49:00.308Z,11.23
2022-10-11T23:51:27.196Z,14.85
2022-10-11T23:53:54.182Z,13.30
2022-10-11T23:56:21.542Z,17.45
2022-10-11T23:58:48.322Z,18.85
